sensor_id;sensor_type;location;lat;lon;timestamp;pressure;altitude;pressure_sealevel;temperature;humidity
70103;BME280;57470;50.034;15.256;2023-04-09T00:00:34;100191.31;;;6.27;96.70
70103;BME280;57470;50.034;15.256;2023-04-09T00:02:59;100205.34;;;6.29;96.69
70103;BME280;57470;50.034;15.256;2023-04-09T00:05:24;100202.53;;;6.33;96.13
70103;BME280;57470;50.034;15.256;2023-04-09T00:07:50;100199.03;;;6.33;96.07
70103;BME280;57470;50.034;15.256;2023-04-09T00:10:15;100198.97;;;6.34;96.69
70103;BME280;57470;50.034;15.256;2023-04-09T00:12:41;100186.13;;;6.25;96.75
70103;BME280;57470;50.034;15.256;2023-04-09T00:15:06;100197.31;;;6.09;97.13
70103;BME280;57470;50.034;15.256;2023-04-09T00:17:32;100202.13;;;5.99;97.47
70103;BME280;57470;50.034;15.256;2023-04-09T00:19:57;100207.81;;;6.10;97.26
70103;BME280;57470;50.034;15.256;2023-04-09T00:22:23;100211.91;;;6.19;97.72
70103;BME280;57470;50.034;15.256;2023-04-09T00:24:48;100212.66;;;6.22;97.79
70103;BME280;57470;50.034;15.256;2023-04-09T00:27:13;100212.28;;;6.31;96.96
70103;BME280;57470;50.034;15.256;2023-04-09T00:29:39;100213.88;;;6.35;97.47
70103;BME280;57470;50.034;15.256;2023-04-09T00:32:05;100210.81;;;6.46;97.03
70103;BME280;57470;50.034;15.256;2023-04-09T00:34:30;100210.88;;;6.45;96.62
70103;BME280;57470;50.034;15.256;2023-04-09T00:36:56;100196.88;;;6.43;97.34
70103;BME280;57470;50.034;15.256;2023-04-09T00:39:21;100198.22;;;6.31;98.12
70103;BME280;57470;50.034;15.256;2023-04-09T00:41:46;100192.81;;;6.34;98.67
70103;BME280;57470;50.034;15.256;2023-04-09T00:44:12;100192.72;;;6.35;98.26
70103;BME280;57470;50.034;15.256;2023-04-09T00:46:37;100196.59;;;6.27;99.06
70103;BME280;57470;50.034;15.256;2023-04-09T00:49:02;100198.22;;;6.31;98.67
70103;BME280;57470;50.034;15.256;2023-04-09T00:51:28;100197.09;;;6.36;98.71
70103;BME280;57470;50.034;15.256;2023-04-09T00:53:54;100207.81;;;6.33;98.88
70103;BME280;57470;50.034;15.256;2023-04-09T00:56:20;100203.38;;;6.34;98.75
70103;BME280;57470;50.034;15.256;2023-04-09T00:58:47;100201.97;;;6.25;98.71
70103;BME280;57470;50.034;15.256;2023-04-09T01:01:12;100206.03;;;6.34;99.08
70103;BME280;57470;50.034;15.256;2023-04-09T01:03:38;100202.75;;;6.27;99.00
70103;BME280;57470;50.034;15.256;2023-04-09T01:06:13;100209.03;;;6.25;99.76
70103;BME280;57470;50.034;15.256;2023-04-09T01:14:34;100196.56;;;6.28;100.00
70103;BME280;57470;50.034;15.256;2023-04-09T01:17:09;100196.00;;;6.20;99.40
70103;BME280;57470;50.034;15.256;2023-04-09T01:22:56;100189.75;;;6.23;100.00
70103;BME280;57470;50.034;15.256;2023-04-09T01:28:21;100198.31;;;6.06;100.00
70103;BME280;57470;50.034;15.256;2023-04-09T01:30:49;100197.72;;;6.21;100.00
70103;BME280;57470;50.034;15.256;2023-04-09T01:33:17;100189.69;;;6.24;100.00
70103;BME280;57470;50.034;15.256;2023-04-09T01:35:45;100195.50;;;6.11;100.00
70103;BME280;57470;50.034;15.256;2023-04-09T01:38:13;100189.03;;;5.96;100.00
70103;BME280;57470;50.034;15.256;2023-04-09T01:40:39;100188.63;;;6.07;100.00
70103;BME280;57470;50.034;15.256;2023-04-09T01:43:05;100192.03;;;6.09;100.00
70103;BME280;57470;50.034;15.256;2023-04-09T01:45:32;100189.84;;;5.98;100.00
70103;BME280;57470;50.034;15.256;2023-04-09T01:47:59;100185.94;;;5.83;100.00
70103;BME280;57470;50.034;15.256;2023-04-09T01:50:25;100186.75;;;5.85;100.00
70103;BME280;57470;50.034;15.256;2023-04-09T01:52:51;100188.47;;;5.86;100.00
70103;BME280;57470;50.034;15.256;2023-04-09T01:55:17;100194.31;;;5.96;100.00
70103;BME280;57470;50.034;15.256;2023-04-09T01:57:42;100195.97;;;5.98;100.00
70103;BME280;57470;50.034;15.256;2023-04-09T02:00:09;100193.34;;;5.98;100.00
70103;BME280;57470;50.034;15.256;2023-04-09T02:02:41;100200.78;;;6.11;100.00
70103;BME280;57470;50.034;15.256;2023-04-09T02:05:14;100190.41;;;6.06;100.00
70103;BME280;57470;50.034;15.256;2023-04-09T02:07:51;100191.78;;;5.93;100.00
70103;BME280;57470;50.034;15.256;2023-04-09T02:10:21;100193.81;;;5.85;100.00
70103;BME280;57470;50.034;15.256;2023-04-09T02:12:51;100187.16;;;5.75;100.00
70103;BME280;57470;50.034;15.256;2023-04-09T02:15:19;100186.69;;;5.87;100.00
70103;BME280;57470;50.034;15.256;2023-04-09T02:17:47;100181.31;;;5.66;100.00
70103;BME280;57470;50.034;15.256;2023-04-09T02:20:18;100188.16;;;5.72;100.00
70103;BME280;57470;50.034;15.256;2023-04-09T02:22:46;100199.81;;;5.42;100.00
70103;BME280;57470;50.034;15.256;2023-04-09T02:25:13;100192.38;;;5.53;100.00
70103;BME280;57470;50.034;15.256;2023-04-09T02:27:41;100190.84;;;5.71;100.00
70103;BME280;57470;50.034;15.256;2023-04-09T02:30:08;100182.13;;;5.69;100.00
70103;BME280;57470;50.034;15.256;2023-04-09T02:32:34;100185.03;;;5.61;100.00
70103;BME280;57470;50.034;15.256;2023-04-09T02:35:01;100184.06;;;5.63;100.00
70103;BME280;57470;50.034;15.256;2023-04-09T02:37:28;100185.81;;;5.40;100.00
70103;BME280;57470;50.034;15.256;2023-04-09T02:39:56;100184.13;;;5.37;100.00
70103;BME280;57470;50.034;15.256;2023-04-09T02:42:22;100190.66;;;5.52;100.00
70103;BME280;57470;50.034;15.256;2023-04-09T02:44:49;100188.22;;;5.46;100.00
70103;BME280;57470;50.034;15.256;2023-04-09T02:47:16;100195.31;;;5.45;100.00
70103;BME280;57470;50.034;15.256;2023-04-09T02:49:43;100197.19;;;5.42;100.00
70103;BME280;57470;50.034;15.256;2023-04-09T02:52:09;100199.25;;;5.57;100.00
70103;BME280;57470;50.034;15.256;2023-04-09T02:54:35;100189.78;;;5.51;100.00
70103;BME280;57470;50.034;15.256;2023-04-09T02:57:00;100189.69;;;5.54;100.00
70103;BME280;57470;50.034;15.256;2023-04-09T02:59:26;100188.75;;;5.55;100.00
70103;BME280;57470;50.034;15.256;2023-04-09T03:01:52;100185.38;;;5.52;100.00
70103;BME280;57470;50.034;15.256;2023-04-09T03:04:17;100194.22;;;5.51;100.00
70103;BME280;57470;50.034;15.256;2023-04-09T03:06:42;100185.25;;;5.55;100.00
70103;BME280;57470;50.034;15.256;2023-04-09T03:09:08;100178.34;;;5.27;100.00
70103;BME280;57470;50.034;15.256;2023-04-09T03:11:33;100187.28;;;5.23;100.00
70103;BME280;57470;50.034;15.256;2023-04-09T03:13:58;100179.13;;;5.29;100.00
70103;BME280;57470;50.034;15.256;2023-04-09T03:16:24;100182.38;;;5.38;100.00
70103;BME280;57470;50.034;15.256;2023-04-09T03:18:50;100183.88;;;5.45;100.00
70103;BME280;57470;50.034;15.256;2023-04-09T03:21:15;100180.13;;;5.27;100.00
70103;BME280;57470;50.034;15.256;2023-04-09T03:23:40;100184.22;;;5.36;100.00
70103;BME280;57470;50.034;15.256;2023-04-09T03:26:06;100185.50;;;5.24;100.00
70103;BME280;57470;50.034;15.256;2023-04-09T03:28:31;100178.72;;;5.42;100.00
70103;BME280;57470;50.034;15.256;2023-04-09T03:30:57;100171.03;;;5.36;100.00
70103;BME280;57470;50.034;15.256;2023-04-09T03:33:23;100170.78;;;5.18;100.00
70103;BME280;57470;50.034;15.256;2023-04-09T03:35:48;100168.72;;;5.26;100.00
70103;BME280;57470;50.034;15.256;2023-04-09T03:38:14;100168.13;;;5.18;100.00
70103;BME280;57470;50.034;15.256;2023-04-09T03:40:39;100174.78;;;5.28;100.00
70103;BME280;57470;50.034;15.256;2023-04-09T03:43:06;100173.13;;;5.26;100.00
70103;BME280;57470;50.034;15.256;2023-04-09T03:45:32;100172.47;;;5.19;100.00
70103;BME280;57470;50.034;15.256;2023-04-09T03:47:57;100168.50;;;5.33;100.00
70103;BME280;57470;50.034;15.256;2023-04-09T03:50:22;100169.34;;;5.33;100.00
70103;BME280;57470;50.034;15.256;2023-04-09T03:52:48;100184.09;;;5.14;100.00
70103;BME280;57470;50.034;15.256;2023-04-09T03:55:13;100191.91;;;5.42;100.00
70103;BME280;57470;50.034;15.256;2023-04-09T03:57:38;100185.00;;;5.38;100.00
70103;BME280;57470;50.034;15.256;2023-04-09T04:00:04;100186.03;;;5.34;100.00
70103;BME280;57470;50.034;15.256;2023-04-09T04:02:30;100194.88;;;5.33;100.00
70103;BME280;57470;50.034;15.256;2023-04-09T04:05:00;100191.72;;;5.46;100.00
70103;BME280;57470;50.034;15.256;2023-04-09T04:07:26;100187.31;;;5.47;100.00
70103;BME280;57470;50.034;15.256;2023-04-09T04:09:51;100191.00;;;5.43;100.00
70103;BME280;57470;50.034;15.256;2023-04-09T04:12:17;100198.84;;;5.44;100.00
70103;BME280;57470;50.034;15.256;2023-04-09T04:14:42;100196.59;;;5.34;100.00
70103;BME280;57470;50.034;15.256;2023-04-09T04:17:09;100197.56;;;5.31;100.00
70103;BME280;57470;50.034;15.256;2023-04-09T04:19:35;100202.28;;;5.46;100.00
70103;BME280;57470;50.034;15.256;2023-04-09T04:22:00;100193.03;;;5.35;100.00
70103;BME280;57470;50.034;15.256;2023-04-09T04:24:25;100198.94;;;5.41;100.00
70103;BME280;57470;50.034;15.256;2023-04-09T04:26:51;100199.88;;;5.40;100.00
70103;BME280;57470;50.034;15.256;2023-04-09T04:29:16;100206.81;;;5.43;100.00
70103;BME280;57470;50.034;15.256;2023-04-09T04:31:42;100214.34;;;5.53;100.00
70103;BME280;57470;50.034;15.256;2023-04-09T04:34:07;100216.84;;;5.56;100.00
70103;BME280;57470;50.034;15.256;2023-04-09T04:36:32;100218.09;;;5.46;100.00
70103;BME280;57470;50.034;15.256;2023-04-09T04:38:58;100216.00;;;5.56;100.00
70103;BME280;57470;50.034;15.256;2023-04-09T04:41:23;100215.53;;;5.45;100.00
70103;BME280;57470;50.034;15.256;2023-04-09T04:43:48;100228.31;;;5.55;100.00
70103;BME280;57470;50.034;15.256;2023-04-09T04:46:14;100216.72;;;5.61;100.00
70103;BME280;57470;50.034;15.256;2023-04-09T04:48:40;100219.16;;;5.65;100.00
70103;BME280;57470;50.034;15.256;2023-04-09T04:51:05;100219.75;;;5.74;99.86
70103;BME280;57470;50.034;15.256;2023-04-09T04:53:31;100217.34;;;5.68;99.59
70103;BME280;57470;50.034;15.256;2023-04-09T04:55:57;100211.59;;;5.56;100.00
70103;BME280;57470;50.034;15.256;2023-04-09T04:58:23;100212.50;;;5.55;100.00
70103;BME280;57470;50.034;15.256;2023-04-09T05:00:49;100216.56;;;5.64;100.00
70103;BME280;57470;50.034;15.256;2023-04-09T05:03:14;100214.34;;;5.53;100.00
70103;BME280;57470;50.034;15.256;2023-04-09T05:05:39;100224.00;;;5.54;100.00
70103;BME280;57470;50.034;15.256;2023-04-09T05:08:05;100214.88;;;5.63;100.00
70103;BME280;57470;50.034;15.256;2023-04-09T05:10:31;100220.59;;;5.51;100.00
70103;BME280;57470;50.034;15.256;2023-04-09T05:12:56;100218.38;;;5.39;100.00
70103;BME280;57470;50.034;15.256;2023-04-09T05:15:22;100230.56;;;5.18;100.00
70103;BME280;57470;50.034;15.256;2023-04-09T05:17:47;100231.34;;;5.20;100.00
70103;BME280;57470;50.034;15.256;2023-04-09T05:20:12;100231.38;;;5.45;100.00
70103;BME280;57470;50.034;15.256;2023-04-09T05:22:38;100236.97;;;5.60;100.00
70103;BME280;57470;50.034;15.256;2023-04-09T05:25:04;100235.22;;;5.59;100.00
70103;BME280;57470;50.034;15.256;2023-04-09T05:27:29;100239.75;;;5.56;100.00
70103;BME280;57470;50.034;15.256;2023-04-09T05:29:54;100240.22;;;5.67;100.00
70103;BME280;57470;50.034;15.256;2023-04-09T05:32:20;100244.63;;;5.66;100.00
70103;BME280;57470;50.034;15.256;2023-04-09T05:34:45;100245.88;;;5.56;100.00
70103;BME280;57470;50.034;15.256;2023-04-09T05:37:11;100245.50;;;5.67;100.00
70103;BME280;57470;50.034;15.256;2023-04-09T05:39:36;100254.91;;;5.74;100.00
70103;BME280;57470;50.034;15.256;2023-04-09T05:42:02;100244.69;;;5.65;100.00
70103;BME280;57470;50.034;15.256;2023-04-09T05:44:27;100250.84;;;5.90;100.00
70103;BME280;57470;50.034;15.256;2023-04-09T05:46:53;100252.22;;;6.00;100.00
70103;BME280;57470;50.034;15.256;2023-04-09T05:49:18;100253.59;;;6.11;99.57
70103;BME280;57470;50.034;15.256;2023-04-09T05:51:43;100256.47;;;6.05;99.43
70103;BME280;57470;50.034;15.256;2023-04-09T05:54:09;100258.34;;;5.53;100.00
70103;BME280;57470;50.034;15.256;2023-04-09T05:56:34;100263.06;;;5.43;100.00
70103;BME280;57470;50.034;15.256;2023-04-09T05:59:00;100270.19;;;5.41;100.00
70103;BME280;57470;50.034;15.256;2023-04-09T06:01:25;100262.06;;;5.21;100.00
70103;BME280;57470;50.034;15.256;2023-04-09T06:03:51;100256.69;;;5.74;100.00
70103;BME280;57470;50.034;15.256;2023-04-09T06:06:17;100255.84;;;5.98;100.00
70103;BME280;57470;50.034;15.256;2023-04-09T06:08:43;100256.88;;;5.94;100.00
70103;BME280;57470;50.034;15.256;2023-04-09T06:11:09;100259.78;;;6.10;100.00
70103;BME280;57470;50.034;15.256;2023-04-09T06:13:35;100256.41;;;6.06;100.00
70103;BME280;57470;50.034;15.256;2023-04-09T06:16:06;100245.38;;;6.18;100.00
70103;BME280;57470;50.034;15.256;2023-04-09T06:18:31;100260.44;;;6.16;100.00
70103;BME280;57470;50.034;15.256;2023-04-09T06:21:04;100256.44;;;6.28;99.49
70103;BME280;57470;50.034;15.256;2023-04-09T06:23:31;100270.41;;;6.31;99.53
70103;BME280;57470;50.034;15.256;2023-04-09T06:25:57;100265.69;;;6.39;99.06
70103;BME280;57470;50.034;15.256;2023-04-09T06:28:23;100270.00;;;6.42;99.13
70103;BME280;57470;50.034;15.256;2023-04-09T06:30:48;100264.53;;;6.47;98.59
70103;BME280;57470;50.034;15.256;2023-04-09T06:33:13;100267.97;;;6.49;97.73
70103;BME280;57470;50.034;15.256;2023-04-09T06:35:39;100260.91;;;6.49;98.35
70103;BME280;57470;50.034;15.256;2023-04-09T06:38:04;100268.09;;;6.46;99.17
70103;BME280;57470;50.034;15.256;2023-04-09T06:40:31;100276.66;;;6.52;98.88
70103;BME280;57470;50.034;15.256;2023-04-09T06:42:56;100269.88;;;6.45;98.88
70103;BME280;57470;50.034;15.256;2023-04-09T06:45:21;100278.69;;;6.67;98.51
70103;BME280;57470;50.034;15.256;2023-04-09T06:47:47;100268.22;;;6.64;98.19
70103;BME280;57470;50.034;15.256;2023-04-09T06:50:12;100269.94;;;6.65;97.86
70103;BME280;57470;50.034;15.256;2023-04-09T06:52:37;100276.16;;;6.86;97.96
70103;BME280;57470;50.034;15.256;2023-04-09T06:55:03;100277.16;;;6.84;97.48
70103;BME280;57470;50.034;15.256;2023-04-09T06:57:29;100281.28;;;6.69;98.75
70103;BME280;57470;50.034;15.256;2023-04-09T06:59:54;100280.09;;;6.76;98.10
70103;BME280;57470;50.034;15.256;2023-04-09T07:02:20;100288.47;;;6.87;97.05
70103;BME280;57470;50.034;15.256;2023-04-09T07:04:48;100278.44;;;6.95;96.45
70103;BME280;57470;50.034;15.256;2023-04-09T07:07:13;100275.41;;;7.04;95.79
70103;BME280;57470;50.034;15.256;2023-04-09T07:09:38;100280.81;;;7.01;96.31
70103;BME280;57470;50.034;15.256;2023-04-09T07:12:04;100286.25;;;7.40;96.84
70103;BME280;57470;50.034;15.256;2023-04-09T07:14:29;100293.09;;;7.44;95.91
70103;BME280;57470;50.034;15.256;2023-04-09T07:16:55;100294.84;;;7.45;96.50
70103;BME280;57470;50.034;15.256;2023-04-09T07:19:20;100293.47;;;7.57;95.62
70103;BME280;57470;50.034;15.256;2023-04-09T07:21:45;100297.16;;;7.53;96.23
70103;BME280;57470;50.034;15.256;2023-04-09T07:24:11;100300.81;;;7.50;95.96
70103;BME280;57470;50.034;15.256;2023-04-09T07:26:36;100300.06;;;7.47;94.90
70103;BME280;57470;50.034;15.256;2023-04-09T07:29:01;100295.13;;;7.60;95.00
70103;BME280;57470;50.034;15.256;2023-04-09T07:31:28;100294.44;;;7.95;95.75
70103;BME280;57470;50.034;15.256;2023-04-09T07:33:54;100296.41;;;7.70;95.43
70103;BME280;57470;50.034;15.256;2023-04-09T07:36:19;100307.19;;;7.45;95.43
70103;BME280;57470;50.034;15.256;2023-04-09T07:38:45;100307.00;;;7.70;94.65
70103;BME280;57470;50.034;15.256;2023-04-09T07:41:10;100304.22;;;7.52;96.07
70103;BME280;57470;50.034;15.256;2023-04-09T07:43:36;100301.25;;;7.80;95.74
70103;BME280;57470;50.034;15.256;2023-04-09T07:46:01;100304.06;;;7.77;95.04
70103;BME280;57470;50.034;15.256;2023-04-09T07:48:26;100297.94;;;7.96;95.49
70103;BME280;57470;50.034;15.256;2023-04-09T07:50:52;100296.56;;;7.87;96.22
70103;BME280;57470;50.034;15.256;2023-04-09T07:53:17;100294.53;;;8.12;95.44
70103;BME280;57470;50.034;15.256;2023-04-09T07:55:43;100293.31;;;8.40;94.69
70103;BME280;57470;50.034;15.256;2023-04-09T07:58:08;100299.22;;;8.63;94.95
70103;BME280;57470;50.034;15.256;2023-04-09T08:00:34;100294.13;;;8.59;94.24
70103;BME280;57470;50.034;15.256;2023-04-09T08:03:00;100303.41;;;8.86;94.44
70103;BME280;57470;50.034;15.256;2023-04-09T08:05:27;100298.25;;;8.66;95.29
70103;BME280;57470;50.034;15.256;2023-04-09T08:07:53;100300.94;;;8.83;93.53
70103;BME280;57470;50.034;15.256;2023-04-09T08:10:18;100308.72;;;8.86;94.81
70103;BME280;57470;50.034;15.256;2023-04-09T08:12:44;100301.88;;;8.82;93.33
70103;BME280;57470;50.034;15.256;2023-04-09T08:15:10;100305.78;;;9.46;92.97
70103;BME280;57470;50.034;15.256;2023-04-09T08:17:36;100306.81;;;9.60;93.24
70103;BME280;57470;50.034;15.256;2023-04-09T08:20:02;100309.91;;;9.86;92.22
70103;BME280;57470;50.034;15.256;2023-04-09T08:22:28;100304.78;;;9.83;93.70
70103;BME280;57470;50.034;15.256;2023-04-09T08:24:54;100303.41;;;10.41;92.14
70103;BME280;57470;50.034;15.256;2023-04-09T08:27:20;100305.06;;;10.60;90.32
70103;BME280;57470;50.034;15.256;2023-04-09T08:29:46;100298.56;;;10.32;89.40
70103;BME280;57470;50.034;15.256;2023-04-09T08:32:11;100293.53;;;10.43;90.37
70103;BME280;57470;50.034;15.256;2023-04-09T08:34:37;100301.53;;;11.06;90.86
70103;BME280;57470;50.034;15.256;2023-04-09T08:37:02;100306.16;;;11.03;88.72
70103;BME280;57470;50.034;15.256;2023-04-09T08:39:27;100294.06;;;10.66;90.04
70103;BME280;57470;50.034;15.256;2023-04-09T08:42:00;100295.38;;;11.20;88.85
70103;BME280;57470;50.034;15.256;2023-04-09T08:44:27;100294.41;;;10.60;89.64
70103;BME280;57470;50.034;15.256;2023-04-09T08:46:52;100302.75;;;9.70;90.36
70103;BME280;57470;50.034;15.256;2023-04-09T08:49:19;100301.09;;;10.35;89.32
70103;BME280;57470;50.034;15.256;2023-04-09T08:51:45;100297.34;;;10.71;88.50
70103;BME280;57470;50.034;15.256;2023-04-09T08:54:14;100299.47;;;10.80;88.10
70103;BME280;57470;50.034;15.256;2023-04-09T08:56:40;100300.75;;;10.41;88.14
70103;BME280;57470;50.034;15.256;2023-04-09T08:59:14;100292.88;;;9.90;89.62
70103;BME280;57470;50.034;15.256;2023-04-09T09:01:39;100292.50;;;9.63;88.66
70103;BME280;57470;50.034;15.256;2023-04-09T09:04:06;100295.25;;;10.76;89.26
70103;BME280;57470;50.034;15.256;2023-04-09T09:06:36;100291.31;;;10.36;90.53
70103;BME280;57470;50.034;15.256;2023-04-09T09:09:13;100298.53;;;10.65;89.11
70103;BME280;57470;50.034;15.256;2023-04-09T09:11:44;100290.47;;;10.98;85.06
70103;BME280;57470;50.034;15.256;2023-04-09T09:14:19;100296.63;;;11.14;83.95
70103;BME280;57470;50.034;15.256;2023-04-09T09:22:03;100294.56;;;10.08;89.17
70103;BME280;57470;50.034;15.256;2023-04-09T09:24:30;100300.91;;;11.01;86.38
70103;BME280;57470;50.034;15.256;2023-04-09T09:26:57;100289.44;;;10.38;90.07
70103;BME280;57470;50.034;15.256;2023-04-09T09:29:23;100299.38;;;10.97;85.31
70103;BME280;57470;50.034;15.256;2023-04-09T09:31:53;100299.19;;;11.16;84.04
70103;BME280;57470;50.034;15.256;2023-04-09T09:34:20;100299.06;;;11.63;83.79
70103;BME280;57470;50.034;15.256;2023-04-09T09:36:46;100300.06;;;11.16;83.01
70103;BME280;57470;50.034;15.256;2023-04-09T09:39:13;100293.22;;;11.42;81.61
70103;BME280;57470;50.034;15.256;2023-04-09T09:41:39;100294.50;;;11.65;82.24
70103;BME280;57470;50.034;15.256;2023-04-09T09:44:09;100299.72;;;11.37;81.17
70103;BME280;57470;50.034;15.256;2023-04-09T09:46:37;100296.22;;;12.10;81.46
70103;BME280;57470;50.034;15.256;2023-04-09T09:49:04;100297.09;;;12.25;80.88
70103;BME280;57470;50.034;15.256;2023-04-09T09:51:31;100298.97;;;12.37;81.92
70103;BME280;57470;50.034;15.256;2023-04-09T09:53:57;100301.81;;;12.20;82.76
70103;BME280;57470;50.034;15.256;2023-04-09T09:56:31;100293.00;;;11.45;83.67
70103;BME280;57470;50.034;15.256;2023-04-09T10:01:43;100292.88;;;12.21;80.81
70103;BME280;57470;50.034;15.256;2023-04-09T10:04:13;100295.16;;;11.98;80.61
70103;BME280;57470;50.034;15.256;2023-04-09T10:06:42;100290.78;;;12.12;80.26
70103;BME280;57470;50.034;15.256;2023-04-09T10:09:08;100295.22;;;11.83;78.58
70103;BME280;57470;50.034;15.256;2023-04-09T10:11:35;100296.97;;;12.12;78.46
70103;BME280;57470;50.034;15.256;2023-04-09T10:14:03;100291.63;;;12.12;78.71
70103;BME280;57470;50.034;15.256;2023-04-09T10:16:31;100284.78;;;12.36;79.77
70103;BME280;57470;50.034;15.256;2023-04-09T10:18:58;100289.00;;;11.38;81.86
70103;BME280;57470;50.034;15.256;2023-04-09T10:21:30;100285.94;;;11.90;83.45
70103;BME280;57470;50.034;15.256;2023-04-09T10:23:57;100276.09;;;12.19;81.49
70103;BME280;57470;50.034;15.256;2023-04-09T10:26:24;100282.72;;;11.39;84.02
70103;BME280;57470;50.034;15.256;2023-04-09T10:29:09;100279.91;;;11.86;81.98
70103;BME280;57470;50.034;15.256;2023-04-09T10:32:04;100276.53;;;11.69;82.69
70103;BME280;57470;50.034;15.256;2023-04-09T10:34:34;100281.38;;;12.06;80.67
70103;BME280;57470;50.034;15.256;2023-04-09T10:37:00;100281.25;;;12.22;79.65
70103;BME280;57470;50.034;15.256;2023-04-09T10:39:27;100282.88;;;12.10;79.13
70103;BME280;57470;50.034;15.256;2023-04-09T10:41:54;100274.88;;;12.10;79.93
70103;BME280;57470;50.034;15.256;2023-04-09T10:44:22;100276.88;;;11.03;83.03
70103;BME280;57470;50.034;15.256;2023-04-09T10:46:48;100274.97;;;11.94;80.90
70103;BME280;57470;50.034;15.256;2023-04-09T10:49:18;100278.50;;;11.81;82.97
70103;BME280;57470;50.034;15.256;2023-04-09T10:51:52;100270.41;;;12.11;80.05
70103;BME280;57470;50.034;15.256;2023-04-09T10:54:48;100266.75;;;12.26;80.12
70103;BME280;57470;50.034;15.256;2023-04-09T10:57:21;100270.63;;;11.34;83.01
70103;BME280;57470;50.034;15.256;2023-04-09T10:59:54;100271.97;;;11.41;81.28
70103;BME280;57470;50.034;15.256;2023-04-09T11:05:28;100277.47;;;11.38;82.60
70103;BME280;57470;50.034;15.256;2023-04-09T11:08:05;100279.81;;;11.44;83.71
70103;BME280;57470;50.034;15.256;2023-04-09T11:10:31;100274.81;;;11.68;81.82
70103;BME280;57470;50.034;15.256;2023-04-09T11:12:57;100267.28;;;11.60;82.12
70103;BME280;57470;50.034;15.256;2023-04-09T11:15:23;100275.81;;;12.09;82.78
70103;BME280;57470;50.034;15.256;2023-04-09T11:17:48;100265.84;;;10.79;84.41
70103;BME280;57470;50.034;15.256;2023-04-09T11:20:21;100271.63;;;11.17;85.43
70103;BME280;57470;50.034;15.256;2023-04-09T11:22:52;100265.06;;;10.61;86.12
70103;BME280;57470;50.034;15.256;2023-04-09T11:25:20;100264.22;;;11.66;84.59
70103;BME280;57470;50.034;15.256;2023-04-09T11:27:45;100272.22;;;12.10;84.77
70103;BME280;57470;50.034;15.256;2023-04-09T11:30:11;100265.59;;;12.44;84.19
70103;BME280;57470;50.034;15.256;2023-04-09T11:32:37;100266.09;;;12.51;82.14
70103;BME280;57470;50.034;15.256;2023-04-09T11:35:02;100263.22;;;11.83;80.60
70103;BME280;57470;50.034;15.256;2023-04-09T11:37:28;100271.00;;;11.12;83.51
70103;BME280;57470;50.034;15.256;2023-04-09T11:39:53;100266.25;;;10.87;85.73
70103;BME280;57470;50.034;15.256;2023-04-09T11:42:20;100267.44;;;11.43;84.14
70103;BME280;57470;50.034;15.256;2023-04-09T11:44:51;100265.25;;;11.63;83.72
70103;BME280;57470;50.034;15.256;2023-04-09T11:47:17;100265.22;;;11.35;82.07
70103;BME280;57470;50.034;15.256;2023-04-09T11:49:44;100262.91;;;11.59;83.64
70103;BME280;57470;50.034;15.256;2023-04-09T11:52:12;100264.94;;;11.40;84.17
70103;BME280;57470;50.034;15.256;2023-04-09T11:54:37;100255.81;;;11.44;83.40
70103;BME280;57470;50.034;15.256;2023-04-09T11:57:03;100265.22;;;11.35;84.16
70103;BME280;57470;50.034;15.256;2023-04-09T11:59:29;100257.88;;;11.39;85.41
70103;BME280;57470;50.034;15.256;2023-04-09T12:01:57;100265.53;;;11.45;86.29
70103;BME280;57470;50.034;15.256;2023-04-09T12:04:23;100266.56;;;11.42;87.56
70103;BME280;57470;50.034;15.256;2023-04-09T12:06:49;100266.91;;;11.66;89.83
70103;BME280;57470;50.034;15.256;2023-04-09T12:09:15;100268.47;;;11.84;89.38
70103;BME280;57470;50.034;15.256;2023-04-09T12:11:44;100263.63;;;11.77;90.14
70103;BME280;57470;50.034;15.256;2023-04-09T12:14:14;100265.63;;;11.87;89.75
70103;BME280;57470;50.034;15.256;2023-04-09T12:16:43;100267.28;;;11.60;89.79
70103;BME280;57470;50.034;15.256;2023-04-09T12:19:10;100268.88;;;11.78;89.31
70103;BME280;57470;50.034;15.256;2023-04-09T12:21:49;100268.78;;;11.94;87.43
70103;BME280;57470;50.034;15.256;2023-04-09T12:24:16;100268.88;;;12.21;86.92
70103;BME280;57470;50.034;15.256;2023-04-09T12:26:44;100259.28;;;11.74;84.93
70103;BME280;57470;50.034;15.256;2023-04-09T12:29:10;100266.78;;;11.97;86.54
70103;BME280;57470;50.034;15.256;2023-04-09T12:31:35;100261.44;;;12.12;84.92
70103;BME280;57470;50.034;15.256;2023-04-09T12:34:01;100266.09;;;11.94;85.37
70103;BME280;57470;50.034;15.256;2023-04-09T12:36:26;100259.19;;;11.61;85.73
70103;BME280;57470;50.034;15.256;2023-04-09T12:38:52;100272.59;;;11.60;86.09
70103;BME280;57470;50.034;15.256;2023-04-09T12:41:17;100258.03;;;11.51;85.94
70103;BME280;57470;50.034;15.256;2023-04-09T12:43:42;100258.69;;;11.55;85.91
70103;BME280;57470;50.034;15.256;2023-04-09T12:46:09;100270.94;;;11.43;85.41
70103;BME280;57470;50.034;15.256;2023-04-09T12:48:34;100266.25;;;11.33;85.78
70103;BME280;57470;50.034;15.256;2023-04-09T12:51:00;100256.75;;;11.13;85.40
70103;BME280;57470;50.034;15.256;2023-04-09T12:53:26;100265.25;;;11.19;85.75
70103;BME280;57470;50.034;15.256;2023-04-09T12:55:51;100258.72;;;11.25;85.20
70103;BME280;57470;50.034;15.256;2023-04-09T12:58:16;100259.13;;;11.33;85.86
70103;BME280;57470;50.034;15.256;2023-04-09T13:00:42;100260.63;;;11.37;86.32
70103;BME280;57470;50.034;15.256;2023-04-09T13:03:07;100251.28;;;11.60;85.10